TAF and METAR

METAR for El Alto International Airport

SLLP 251200Z 00000KT 4000E VCFG FEW003 SCT070 BKN200 06/05 Q1036
Report created 25. jan 13:00
wind 0 knots from N (000°) visibility E 4000 meters fog in the vicinity some clouds (~25% cover) at 300 feet scattered clouds (~50% cover) at 7000 feet broken clouds (~75% cover) at 20000 feet Temperature 6° with dewpoint at 5° (Humidity 93.30%) Pressure 1036 hPa

TAF for El Alto International Airport

TAF SLLP 251000Z 2512/2612 VRB02KT 9999 FEW005 SCT013 BKN070 TX12/ 2520Z TN05/2610Z TEMPO 2516/2520 13012KT 5000 TSRA BKN015 FEW017CB BECMG 2523/2602 06007KT 3000E BCFG SCT010
Report created 25. jan 11:00

between 25. jan 13:00 - 26. jan 13:00

wind 2 knots from various directions visibility > 10km some clouds (~25% cover) at 500 feet scattered clouds (~50% cover) at 1300 feet broken clouds (~75% cover) at 7000 feet Max temperature 12° expected today at around 21 o'clock Min temperature 05° expected tomorrow at around 11 o'clock

temporarily between 25. jan 17:00 - 25. jan 21:00

wind 12 knots from SE (130°) visibility 5000 meters thunderstorm and rain broken clouds (~75% cover) at 1500 feet some clouds (~25% cover) at 1700 feet of type cumulonimbus

becoming between 26. jan 00:00 - 26. jan 03:00

wind 7 knots from ENE (060°) visibility E 3000 meters patches of fog scattered clouds (~50% cover) at 1000 feet
El Alto International Airport in Bolivia at 4014m

Latest 5 airports